createdAt,value
2019-02-05T00:03:48.335Z,11.07
2019-02-05T00:07:55.140Z,12.23
2019-02-05T00:12:02.068Z,10.60
2019-02-05T00:16:08.936Z,10.83
2019-02-05T00:20:15.826Z,12.83
2019-02-05T00:24:22.665Z,12.27
2019-02-05T00:28:29.528Z,13.63
2019-02-05T00:32:36.582Z,10.17
2019-02-05T00:36:43.789Z,12.27
2019-02-05T00:40:50.753Z,13.63
2019-02-05T00:44:57.563Z,13.80
2019-02-05T00:49:04.523Z,15.10
2019-02-05T00:53:11.483Z,15.77
2019-02-05T00:57:18.758Z,13.43
2019-02-05T01:01:25.604Z,14.57
2019-02-05T01:05:33.485Z,14.00
2019-02-05T01:09:40.398Z,13.20
2019-02-05T01:13:47.247Z,15.33
2019-02-05T01:17:55.210Z,12.63
2019-02-05T01:22:02.187Z,13.67
2019-02-05T01:26:09.067Z,12.03
2019-02-05T01:30:20.345Z,12.30
2019-02-05T01:34:27.185Z,12.40
2019-02-05T01:38:34.209Z,16.10
2019-02-05T01:42:41.000Z,13.30
2019-02-05T01:46:47.870Z,14.23
2019-02-05T01:50:54.670Z,16.63
2019-02-05T01:55:01.461Z,16.70
2019-02-05T01:59:08.337Z,14.87
2019-02-05T02:03:15.155Z,19.40
2019-02-05T02:07:25.242Z,16.30
2019-02-05T02:11:34.328Z,16.23
2019-02-05T02:15:41.169Z,15.30
2019-02-05T02:19:48.099Z,17.77
2019-02-05T02:23:55.066Z,15.77
2019-02-05T02:28:02.179Z,15.33
2019-02-05T02:32:09.051Z,17.77
2019-02-05T02:36:15.992Z,17.57
2019-02-05T02:40:23.006Z,17.73
2019-02-05T02:44:30.061Z,16.63
2019-02-05T02:48:37.169Z,17.13
2019-02-05T02:52:44.131Z,17.20
2019-02-05T02:56:51.000Z,17.83
2019-02-05T03:00:58.015Z,15.23
2019-02-05T03:05:07.456Z,18.73
2019-02-05T03:09:14.420Z,18.23
2019-02-05T03:13:21.337Z,19.93
2019-02-05T03:17:28.298Z,17.23
2019-02-05T03:21:35.213Z,19.40
2019-02-05T03:25:42.925Z,17.53
2019-02-05T03:29:49.784Z,18.33
2019-02-05T03:33:56.629Z,19.80
2019-02-05T03:38:03.602Z,19.13
2019-02-05T03:42:10.577Z,18.73
2019-02-05T03:46:18.859Z,21.67
2019-02-05T03:50:26.899Z,22.03
2019-02-05T03:55:28.124Z,18.47
2019-02-05T03:59:58.190Z,18.77
2019-02-05T04:05:09.391Z,21.30
2019-02-05T04:10:07.991Z,19.53
2019-02-05T04:14:37.612Z,19.50
2019-02-05T04:19:53.777Z,22.13
2019-02-05T04:24:58.298Z,20.90
2019-02-05T04:30:06.072Z,25.30
2019-02-05T04:35:21.475Z,24.50
2019-02-05T04:40:32.065Z,21.57
2019-02-05T04:45:34.218Z,17.93
2019-02-05T04:50:23.906Z,22.00
2019-02-05T04:55:18.796Z,20.97
2019-02-05T05:00:10.733Z,18.60
2019-02-05T05:04:59.015Z,20.50
2019-02-05T05:10:01.506Z,23.47
2019-02-05T05:14:08.550Z,22.73
2019-02-05T05:18:15.724Z,20.47
2019-02-05T05:22:22.675Z,20.20
2019-02-05T05:26:29.841Z,23.60
2019-02-05T05:30:37.564Z,25.10
2019-02-05T05:34:44.656Z,23.77
2019-02-05T05:38:51.548Z,25.67
2019-02-05T05:42:58.847Z,20.33
2019-02-05T05:47:05.799Z,21.33
2019-02-05T05:51:13.257Z,23.33
2019-02-05T05:55:21.532Z,22.43
2019-02-05T05:59:28.538Z,21.37
2019-02-05T06:03:35.561Z,23.00
2019-02-05T06:07:42.517Z,22.47
2019-02-05T06:11:49.644Z,22.07
2019-02-05T06:15:56.609Z,24.13
2019-02-05T06:20:03.502Z,22.33
2019-02-05T06:24:11.306Z,52.60
2019-02-05T06:28:18.235Z,22.30
2019-02-05T06:32:25.173Z,27.33
2019-02-05T06:36:32.098Z,26.90
2019-02-05T06:40:39.434Z,23.67
2019-02-05T06:44:46.601Z,23.00
2019-02-05T06:48:53.799Z,27.80
2019-02-05T06:53:01.857Z,26.57
2019-02-05T06:57:08.895Z,22.63
2019-02-05T07:01:15.888Z,25.03
2019-02-05T07:05:22.746Z,26.10
2019-02-05T07:09:30.070Z,30.63
2019-02-05T07:13:36.960Z,26.57
2019-02-05T07:17:49.975Z,28.33
2019-02-05T07:21:53.972Z,25.83
2019-02-05T07:26:00.847Z,26.47
2019-02-05T07:30:12.403Z,25.57
2019-02-05T07:34:21.307Z,29.60
2019-02-05T07:38:28.561Z,28.23
2019-02-05T07:42:36.103Z,27.43
2019-02-05T07:46:43.119Z,28.20
2019-02-05T07:50:50.157Z,26.77
2019-02-05T07:54:57.171Z,29.73
2019-02-05T07:59:10.415Z,27.07
2019-02-05T08:03:12.731Z,26.00
2019-02-05T08:07:19.584Z,28.10
2019-02-05T08:11:26.411Z,28.03
2019-02-05T08:15:34.655Z,29.77
2019-02-05T08:19:41.919Z,31.03
2019-02-05T08:23:50.318Z,25.73
2019-02-05T08:27:57.243Z,27.10
2019-02-05T08:32:04.061Z,26.13
2019-02-05T08:36:10.981Z,30.20
2019-02-05T08:40:19.890Z,27.43
2019-02-05T08:44:29.323Z,28.03
2019-02-05T08:48:36.252Z,23.53
2019-02-05T08:52:43.382Z,28.20
2019-02-05T08:56:50.299Z,23.90
2019-02-05T09:00:57.494Z,23.50
2019-02-05T09:05:05.100Z,28.83
2019-02-05T09:09:11.989Z,28.13
2019-02-05T09:13:18.879Z,21.80
2019-02-05T09:17:25.765Z,25.30
2019-02-05T09:21:32.575Z,25.03
2019-02-05T09:25:39.469Z,26.77
2019-02-05T09:29:46.435Z,28.90
2019-02-05T09:33:56.258Z,34.07
2019-02-05T09:38:03.051Z,28.43
2019-02-05T09:42:09.904Z,30.17
2019-02-05T09:46:16.881Z,34.40
2019-02-05T09:50:23.857Z,26.97
2019-02-05T09:54:30.855Z,32.03
2019-02-05T09:58:37.767Z,32.90
2019-02-05T10:02:44.751Z,22.97
2019-02-05T10:06:52.276Z,25.53
2019-02-05T10:10:59.279Z,26.23
2019-02-05T10:15:10.474Z,33.83
2019-02-05T10:19:17.371Z,29.87
2019-02-05T10:23:31.031Z,36.80
2019-02-05T10:27:38.030Z,29.10
2019-02-05T10:31:44.975Z,26.87
2019-02-05T10:35:52.460Z,25.73
2019-02-05T10:39:59.504Z,36.23
2019-02-05T10:44:06.828Z,30.93
2019-02-05T10:48:13.704Z,26.37
2019-02-05T10:52:20.606Z,29.20
2019-02-05T10:56:27.622Z,26.77
2019-02-05T11:00:34.797Z,26.00
2019-02-05T11:04:42.242Z,26.33
2019-02-05T11:08:49.273Z,24.03
2019-02-05T11:12:56.511Z,25.93
2019-02-05T11:17:03.502Z,26.57
2019-02-05T11:21:10.300Z,25.93
2019-02-05T11:25:17.327Z,23.70
2019-02-05T11:29:25.364Z,24.03
2019-02-05T11:33:32.304Z,20.20
2019-02-05T11:37:39.484Z,21.30
2019-02-05T11:41:46.898Z,22.90
2019-02-05T11:45:53.707Z,22.77
2019-02-05T11:50:00.803Z,19.43
2019-02-05T11:54:07.796Z,20.90
2019-02-05T11:58:16.833Z,19.70
2019-02-05T12:02:23.782Z,19.77
2019-02-05T12:06:30.677Z,20.20
2019-02-05T12:10:37.765Z,18.63
2019-02-05T12:14:44.758Z,20.00
2019-02-05T12:18:52.131Z,17.33
2019-02-05T12:22:59.021Z,19.87
2019-02-05T12:27:05.978Z,17.90
2019-02-05T12:31:12.855Z,18.07
2019-02-05T12:35:19.735Z,16.10
2019-02-05T12:39:26.686Z,15.27
2019-02-05T12:43:33.639Z,19.50
2019-02-05T12:47:40.711Z,18.90
2019-02-05T12:51:47.635Z,19.80
2019-02-05T12:55:54.874Z,19.90
2019-02-05T13:00:01.666Z,20.03
2019-02-05T13:04:10.283Z,18.50
2019-02-05T13:08:17.124Z,16.20
2019-02-05T13:12:24.368Z,16.83
2019-02-05T13:16:31.573Z,16.33
2019-02-05T13:20:38.587Z,17.10
2019-02-05T13:24:45.476Z,20.30
2019-02-05T13:28:52.347Z,18.90
2019-02-05T13:33:00.976Z,19.53
2019-02-05T13:37:08.974Z,19.80
2019-02-05T13:41:15.859Z,18.90
2019-02-05T13:45:27.754Z,20.67
2019-02-05T13:49:35.208Z,21.93
2019-02-05T13:53:42.162Z,20.47
2019-02-05T13:57:49.521Z,22.13
2019-02-05T14:01:56.339Z,18.07
2019-02-05T14:06:03.201Z,17.57
2019-02-05T14:10:16.197Z,18.50
2019-02-05T14:14:23.209Z,15.80
2019-02-05T14:18:30.235Z,14.63
2019-02-05T14:22:37.155Z,16.77
2019-02-05T14:26:44.114Z,16.93
2019-02-05T14:31:00.730Z,15.27
2019-02-05T14:35:09.899Z,16.00
2019-02-05T14:39:17.136Z,18.10
2019-02-05T14:43:24.061Z,18.53
2019-02-05T14:47:31.156Z,16.67
2019-02-05T14:51:38.939Z,19.53
2019-02-05T14:55:45.871Z,17.67
2019-02-05T14:59:52.818Z,20.27
2019-02-05T15:04:00.051Z,18.93
2019-02-05T15:08:07.536Z,18.67
2019-02-05T15:12:14.478Z,17.10
2019-02-05T15:16:21.368Z,17.60
2019-02-05T15:20:35.416Z,16.80
2019-02-05T15:24:43.305Z,15.17
2019-02-05T15:28:50.908Z,17.37
2019-02-05T15:33:28.512Z,15.80
2019-02-05T15:37:35.450Z,16.17
2019-02-05T15:41:42.620Z,20.37
2019-02-05T15:45:50.059Z,14.97
2019-02-05T15:50:05.950Z,17.37
2019-02-05T15:54:08.461Z,17.17
2019-02-05T15:58:15.387Z,15.77
2019-02-05T16:02:22.301Z,16.70
2019-02-05T16:06:29.750Z,18.90
2019-02-05T16:10:36.933Z,17.33
2019-02-05T16:14:43.873Z,17.30
2019-02-05T16:18:53.337Z,18.43
2019-02-05T16:22:59.772Z,18.53
2019-02-05T16:27:06.827Z,18.17
2019-02-05T16:31:13.815Z,19.03
2019-02-05T16:35:21.503Z,17.07
2019-02-05T16:39:28.989Z,19.43
2019-02-05T16:43:36.099Z,19.03
2019-02-05T16:47:43.423Z,18.00
2019-02-05T16:51:50.645Z,17.90
2019-02-05T16:55:59.191Z,17.50
2019-02-05T17:00:14.289Z,19.80
2019-02-05T17:04:21.314Z,22.53
2019-02-05T17:08:28.296Z,21.23
2019-02-05T17:12:35.480Z,19.47
2019-02-05T17:16:42.693Z,21.40
2019-02-05T17:20:49.866Z,21.87
2019-02-05T17:24:56.899Z,19.63
2019-02-05T17:29:03.995Z,21.43
2019-02-05T17:33:11.050Z,20.30
2019-02-05T17:37:18.228Z,20.57
2019-02-05T17:41:25.059Z,18.43
2019-02-05T17:45:35.131Z,21.07
2019-02-05T17:49:42.119Z,21.47
2019-02-05T17:53:49.130Z,21.77
2019-02-05T17:57:56.283Z,21.60
2019-02-05T18:02:03.384Z,24.20
2019-02-05T18:06:11.053Z,26.40
2019-02-05T18:10:21.351Z,21.77
2019-02-05T18:14:28.690Z,20.10
2019-02-05T18:18:35.645Z,22.57
2019-02-05T18:22:42.844Z,25.33
2019-02-05T18:26:50.771Z,23.70
2019-02-05T18:30:58.313Z,24.80
2019-02-05T18:35:06.594Z,24.90
2019-02-05T18:39:14.256Z,20.10
2019-02-05T18:43:21.321Z,23.17
2019-02-05T18:47:29.125Z,21.87
2019-02-05T18:51:37.984Z,20.07
2019-02-05T18:55:45.386Z,24.67
2019-02-05T18:59:52.629Z,22.80
2019-02-05T19:04:00.026Z,22.43
2019-02-05T19:08:08.466Z,24.97
2019-02-05T19:12:15.725Z,23.87
2019-02-05T19:16:25.470Z,23.27
2019-02-05T19:20:33.686Z,22.50
2019-02-05T19:24:55.598Z,23.50
2019-02-05T19:29:02.942Z,25.37
2019-02-05T19:33:10.462Z,22.17
2019-02-05T19:37:17.982Z,26.60
2019-02-05T19:41:25.251Z,24.47
2019-02-05T19:45:54.283Z,27.10
2019-02-05T19:50:02.696Z,29.77
2019-02-05T19:54:13.283Z,29.93
2019-02-05T19:58:20.563Z,26.07
2019-02-05T20:02:31.681Z,25.43
2019-02-05T20:06:47.039Z,30.57
2019-02-05T20:10:54.207Z,26.43
2019-02-05T20:15:01.462Z,29.77
2019-02-05T20:19:14.830Z,26.73
2019-02-05T20:23:22.422Z,27.50
2019-02-05T20:27:29.696Z,30.07
2019-02-05T20:31:37.115Z,25.33
2019-02-05T20:35:44.434Z,54.73
2019-02-05T20:39:53.978Z,28.80
2019-02-05T20:44:01.055Z,26.90
2019-02-05T20:48:09.666Z,30.63
2019-02-05T20:52:17.207Z,27.50
2019-02-05T20:56:25.512Z,26.30
2019-02-05T21:00:33.200Z,27.40
2019-02-05T21:04:48.014Z,28.73
2019-02-05T21:08:49.320Z,25.27
2019-02-05T21:12:59.020Z,31.40
2019-02-05T21:17:06.643Z,28.63
2019-02-05T21:21:14.367Z,26.87
2019-02-05T21:25:23.791Z,25.20
2019-02-05T21:29:31.331Z,25.10
2019-02-05T21:40:22.493Z,41.67
2019-02-05T21:46:06.761Z,29.73
2019-02-05T21:50:17.232Z,24.83
2019-02-05T21:54:24.530Z,34.93
2019-02-05T21:58:31.727Z,37.80
2019-02-05T22:02:38.976Z,34.03
2019-02-05T22:06:49.552Z,29.67
2019-02-05T22:10:56.868Z,26.20
2019-02-05T22:15:06.463Z,32.53
2019-02-05T22:19:13.693Z,31.90
2019-02-05T22:23:21.109Z,28.93
2019-02-05T22:27:28.398Z,31.30
2019-02-05T22:31:35.586Z,34.57
2019-02-05T22:35:46.276Z,26.17
2019-02-05T22:39:53.755Z,27.60
2019-02-05T22:44:00.882Z,32.67
2019-02-05T22:48:09.519Z,42.43
2019-02-05T22:52:17.938Z,41.13
2019-02-05T22:56:27.711Z,37.83
2019-02-05T23:01:07.747Z,36.13
2019-02-05T23:06:21.872Z,31.13
2019-02-05T23:10:46.326Z,36.13
2019-02-05T23:14:59.097Z,30.40
2019-02-05T23:19:06.724Z,28.27
2019-02-05T23:23:15.984Z,27.63
2019-02-05T23:27:23.268Z,28.10
2019-02-05T23:31:33.151Z,34.27
2019-02-05T23:35:40.184Z,29.83
2019-02-05T23:39:47.374Z,29.87
2019-02-05T23:43:54.331Z,30.90
2019-02-05T23:48:01.213Z,31.40
2019-02-05T23:52:09.202Z,26.47
2019-02-05T23:56:25.427Z,28.90
